createdAt,value
2022-10-22T00:01:20.033Z,99297.31
2022-10-22T00:04:05.117Z,99294.00
2022-10-22T00:06:49.825Z,99287.31
2022-10-22T00:09:34.778Z,99289.66
2022-10-22T00:12:20.115Z,99273.94
2022-10-22T00:15:06.372Z,99271.78
2022-10-22T00:17:51.391Z,99263.72
2022-10-22T00:20:36.339Z,99265.50
2022-10-22T00:23:21.286Z,99256.25
2022-10-22T00:26:06.307Z,99253.09
2022-10-22T00:28:51.367Z,99242.66
2022-10-22T00:31:36.232Z,99248.72
2022-10-22T00:34:22.001Z,99259.34
2022-10-22T00:37:06.994Z,99245.19
2022-10-22T00:39:51.827Z,99240.25
2022-10-22T00:42:36.785Z,99244.41
2022-10-22T00:45:23.404Z,99245.94
2022-10-22T00:48:11.344Z,99233.59
2022-10-22T00:51:07.799Z,99234.19
2022-10-22T00:53:56.686Z,99224.53
2022-10-22T00:56:41.692Z,99221.19
2022-10-22T00:59:27.912Z,99219.03
2022-10-22T01:02:13.102Z,99210.53
2022-10-22T01:04:57.876Z,99206.59
2022-10-22T01:07:47.409Z,99206.97
2022-10-22T01:10:47.219Z,99206.56
2022-10-22T01:13:58.090Z,99223.22
2022-10-22T01:20:30.148Z,99205.66
2022-10-22T01:23:39.532Z,99197.00
2022-10-22T01:27:02.776Z,99203.44
2022-10-22T01:29:52.964Z,99199.28
2022-10-22T01:32:49.027Z,99202.19
2022-10-22T01:35:38.367Z,99199.22
2022-10-22T01:38:25.540Z,99202.94
2022-10-22T01:41:10.692Z,99194.25
2022-10-22T01:43:55.685Z,99203.91
2022-10-22T01:46:40.633Z,99189.38
2022-10-22T01:49:48.521Z,99203.78
2022-10-22T01:52:41.673Z,99204.97
2022-10-22T01:55:53.331Z,99181.06
2022-10-22T01:58:44.131Z,99194.44
2022-10-22T02:01:35.825Z,99189.97
2022-10-22T02:04:40.856Z,99188.81
2022-10-22T02:07:31.205Z,99178.59
2022-10-22T02:10:18.336Z,99174.69
2022-10-22T02:13:07.641Z,99169.03
2022-10-22T02:15:54.013Z,99165.53
2022-10-22T02:18:43.193Z,99164.78
2022-10-22T02:21:28.521Z,99163.84
2022-10-22T02:24:13.489Z,99160.53
2022-10-22T02:27:12.071Z,99159.00
2022-10-22T02:30:11.016Z,99162.56
2022-10-22T02:32:56.222Z,99152.94
2022-10-22T02:35:42.172Z,99156.47
2022-10-22T02:38:28.800Z,99161.41
2022-10-22T02:41:16.232Z,99154.13
2022-10-22T02:44:02.495Z,99168.84
2022-10-22T02:46:47.933Z,99166.47
2022-10-22T02:49:32.789Z,99156.44
2022-10-22T02:52:17.523Z,99164.69
2022-10-22T02:55:02.955Z,99157.63
2022-10-22T02:57:47.966Z,99150.94
2022-10-22T03:00:32.977Z,99157.03
2022-10-22T03:03:17.927Z,99153.69
2022-10-22T03:06:02.734Z,99149.16
2022-10-22T03:08:47.586Z,99149.75
2022-10-22T03:11:32.563Z,99152.50
2022-10-22T03:14:17.581Z,99148.19
2022-10-22T03:17:02.561Z,99152.28
2022-10-22T03:19:47.487Z,99145.00
2022-10-22T03:22:34.788Z,99154.22
2022-10-22T03:25:23.416Z,99148.31
2022-10-22T03:28:13.286Z,99150.50
2022-10-22T03:30:58.132Z,99148.91
2022-10-22T03:33:43.166Z,99138.31
2022-10-22T03:36:28.291Z,99135.78
2022-10-22T03:39:15.645Z,99131.66
2022-10-22T03:42:01.539Z,99126.94
2022-10-22T03:44:46.401Z,99132.25
2022-10-22T03:47:31.061Z,99134.59
2022-10-22T03:50:16.761Z,99130.88
2022-10-22T03:53:01.991Z,99138.31
2022-10-22T03:55:46.898Z,99130.66
2022-10-22T03:58:31.785Z,99124.13
2022-10-22T04:01:16.886Z,99135.84
2022-10-22T04:04:01.792Z,99150.16
2022-10-22T04:06:46.763Z,99141.50
2022-10-22T04:09:35.201Z,99126.59
2022-10-22T04:12:19.755Z,99125.25
2022-10-22T04:15:05.444Z,99111.34
2022-10-22T04:17:50.162Z,99104.47
2022-10-22T04:20:34.989Z,99102.53
2022-10-22T04:23:20.312Z,99100.97
2022-10-22T04:26:07.482Z,99107.28
2022-10-22T04:28:52.863Z,99107.84
2022-10-22T04:31:37.406Z,99103.19
2022-10-22T04:34:22.428Z,99091.22
2022-10-22T04:37:07.357Z,99093.97
2022-10-22T04:39:52.326Z,99084.34
2022-10-22T04:42:37.334Z,99095.16
2022-10-22T04:45:22.272Z,99094.41
2022-10-22T04:48:07.315Z,99087.16
2022-10-22T04:50:52.178Z,99092.06
2022-10-22T04:53:37.607Z,99097.56
2022-10-22T04:56:25.197Z,99102.09
2022-10-22T04:59:12.887Z,99097.22
2022-10-22T05:01:57.787Z,99091.94
2022-10-22T05:04:44.171Z,99090.34
2022-10-22T05:07:29.295Z,99099.00
2022-10-22T05:10:14.283Z,99097.66
2022-10-22T05:12:58.975Z,99100.22
2022-10-22T05:15:43.975Z,99099.63
2022-10-22T05:18:28.853Z,99094.91
2022-10-22T05:21:16.823Z,99102.78
2022-10-22T05:24:01.660Z,99092.19
2022-10-22T05:26:52.722Z,99092.38
2022-10-22T05:29:37.678Z,99106.16
2022-10-22T05:32:22.710Z,99109.66
2022-10-22T05:35:07.936Z,99112.44
2022-10-22T05:37:52.745Z,99103.19
2022-10-22T05:40:37.631Z,99104.97
2022-10-22T05:43:22.688Z,99105.56
2022-10-22T05:46:12.803Z,99099.25
2022-10-22T05:49:00.321Z,99107.94
2022-10-22T05:51:44.841Z,99099.47
2022-10-22T05:54:29.886Z,99103.41
2022-10-22T05:57:14.828Z,99102.81
2022-10-22T05:59:59.821Z,99095.94
2022-10-22T06:02:49.516Z,99107.13
2022-10-22T06:05:36.146Z,99114.78
2022-10-22T06:08:20.989Z,99111.66
2022-10-22T06:11:05.820Z,99113.03
2022-10-22T06:13:51.115Z,99111.25
2022-10-22T06:16:35.870Z,99117.75
2022-10-22T06:19:22.478Z,99129.91
2022-10-22T06:22:07.661Z,99125.16
2022-10-22T06:24:52.459Z,99122.97
2022-10-22T06:27:37.760Z,99107.72
2022-10-22T06:30:22.437Z,99113.59
2022-10-22T06:33:07.294Z,99103.84
2022-10-22T06:35:52.993Z,99100.25
2022-10-22T06:38:38.613Z,99095.34
2022-10-22T06:41:27.058Z,99077.19
2022-10-22T06:44:19.213Z,99076.38
2022-10-22T06:47:04.449Z,99067.31
2022-10-22T06:49:49.994Z,99067.81
2022-10-22T06:52:35.164Z,99079.59
2022-10-22T06:55:20.037Z,99073.84
2022-10-22T06:58:06.339Z,99078.91
2022-10-22T07:01:20.182Z,99083.38
2022-10-22T07:04:06.213Z,99081.44
2022-10-22T07:06:50.922Z,99088.34
2022-10-22T07:09:35.962Z,99065.72
2022-10-22T07:12:21.231Z,99067.50
2022-10-22T07:15:06.319Z,99072.56
2022-10-22T07:17:51.256Z,99066.38
2022-10-22T07:20:36.122Z,99066.03
2022-10-22T07:23:21.246Z,99076.69
2022-10-22T07:26:07.930Z,99096.16
2022-10-22T07:28:52.593Z,99094.75
2022-10-22T07:31:37.700Z,99089.44
2022-10-22T07:34:22.543Z,99088.63
2022-10-22T07:37:07.651Z,99087.34
2022-10-22T07:39:52.677Z,99092.34
2022-10-22T07:42:37.609Z,99074.91
2022-10-22T07:45:22.666Z,99077.81
2022-10-22T07:48:07.692Z,99086.53
2022-10-22T07:50:52.723Z,99098.75
2022-10-22T07:53:37.910Z,99083.47
2022-10-22T07:56:22.790Z,99088.44
2022-10-22T07:59:07.656Z,99082.75
2022-10-22T08:01:52.775Z,99074.97
2022-10-22T08:04:37.975Z,99085.84
2022-10-22T08:07:23.161Z,99087.91
2022-10-22T08:10:09.947Z,99089.25
2022-10-22T08:12:54.640Z,99077.56
2022-10-22T08:15:39.779Z,99068.44
2022-10-22T08:18:24.964Z,99068.84
2022-10-22T08:21:11.882Z,99071.84
2022-10-22T08:23:56.692Z,99077.81
2022-10-22T08:26:42.039Z,99059.50
2022-10-22T08:29:27.287Z,99058.00
2022-10-22T08:32:11.986Z,99065.81
2022-10-22T08:35:01.461Z,99057.34
2022-10-22T08:37:46.320Z,99058.34
2022-10-22T08:40:39.551Z,99064.75
2022-10-22T08:43:38.474Z,99067.81
2022-10-22T08:46:41.666Z,99070.56
2022-10-22T08:49:32.554Z,99064.63
2022-10-22T08:52:19.434Z,99068.53
2022-10-22T08:55:05.386Z,99075.19
2022-10-22T08:58:21.365Z,99082.38
2022-10-22T09:01:12.936Z,99083.66
2022-10-22T09:04:14.360Z,99075.75
2022-10-22T09:06:59.855Z,99071.13
2022-10-22T09:09:50.486Z,99079.06
2022-10-22T09:12:35.472Z,99095.28
2022-10-22T09:15:20.792Z,99088.06
2022-10-22T09:18:32.526Z,99086.00
2022-10-22T09:21:23.581Z,99096.53
2022-10-22T09:24:12.610Z,99096.34
2022-10-22T09:26:57.449Z,99089.25
2022-10-22T09:29:43.745Z,99088.31
2022-10-22T09:32:28.554Z,99084.16
2022-10-22T09:35:14.488Z,99089.09
2022-10-22T09:38:07.483Z,99098.94
2022-10-22T09:40:55.067Z,99094.47
2022-10-22T09:43:40.109Z,99105.19
2022-10-22T09:46:28.815Z,99108.31
2022-10-22T09:49:23.322Z,99104.94
2022-10-22T09:52:25.440Z,99109.34
2022-10-22T09:55:17.985Z,99105.19
2022-10-22T09:58:03.005Z,99094.94
2022-10-22T10:00:59.491Z,99094.84
2022-10-22T10:03:44.395Z,99099.50
2022-10-22T10:06:32.015Z,99101.88
2022-10-22T10:09:20.987Z,99077.72
2022-10-22T10:12:19.944Z,99068.81
2022-10-22T10:15:15.686Z,99058.63
2022-10-22T10:18:15.577Z,99058.75
2022-10-22T10:21:26.292Z,99055.53
2022-10-22T10:24:35.590Z,99062.59
2022-10-22T10:27:39.179Z,99065.47
2022-10-22T10:30:24.396Z,99059.75
2022-10-22T10:33:30.750Z,99058.97
2022-10-22T10:36:39.209Z,99053.19
2022-10-22T10:39:49.431Z,99046.91
2022-10-22T10:42:43.934Z,99045.38
2022-10-22T10:45:45.075Z,99040.78
2022-10-22T10:48:49.520Z,99040.81
2022-10-22T10:51:45.739Z,99036.66
2022-10-22T10:54:30.591Z,99028.28
2022-10-22T10:57:15.522Z,99025.88
2022-10-22T11:00:11.241Z,99006.38
2022-10-22T11:03:15.249Z,99009.16
2022-10-22T11:06:07.205Z,98993.34
2022-10-22T11:08:54.368Z,98992.88
2022-10-22T11:11:45.033Z,98992.63
2022-10-22T11:14:34.805Z,98990.22
2022-10-22T11:17:21.618Z,98984.75
2022-10-22T11:20:17.924Z,98993.75
2022-10-22T11:23:23.120Z,99002.16
2022-10-22T11:26:16.950Z,98988.47
2022-10-22T11:29:06.728Z,98995.38
2022-10-22T11:31:54.167Z,99004.53
2022-10-22T11:34:47.708Z,99007.63
2022-10-22T11:37:34.788Z,99003.81
2022-10-22T11:40:31.536Z,98997.91
2022-10-22T11:43:51.968Z,98984.66
2022-10-22T11:46:36.756Z,98982.81
2022-10-22T11:49:42.831Z,98982.00
2022-10-22T11:52:40.408Z,98988.84
2022-10-22T11:55:45.276Z,98985.94
2022-10-22T11:58:44.347Z,98996.56
2022-10-22T12:01:41.444Z,98989.78
2022-10-22T12:04:41.522Z,99001.19
2022-10-22T12:07:48.961Z,98999.47
2022-10-22T12:10:50.275Z,99013.16
2022-10-22T12:14:12.524Z,99012.16
2022-10-22T12:16:58.797Z,99032.91
2022-10-22T12:19:46.187Z,99016.13
2022-10-22T12:22:33.124Z,99008.56
2022-10-22T12:25:22.650Z,99004.13
2022-10-22T12:28:12.076Z,99009.06
2022-10-22T12:30:59.260Z,98992.75
2022-10-22T12:33:44.052Z,98982.63
2022-10-22T12:36:31.639Z,98975.28
2022-10-22T12:39:20.929Z,98969.19
2022-10-22T12:42:10.294Z,98953.38
2022-10-22T12:44:56.079Z,98950.38
2022-10-22T12:47:46.107Z,98924.63
2022-10-22T12:50:36.982Z,98915.44
2022-10-22T12:53:37.080Z,98908.75
2022-10-22T12:56:27.097Z,98902.19
2022-10-22T12:59:47.189Z,98898.13
2022-10-22T13:02:34.743Z,98894.31
2022-10-22T13:05:19.554Z,98898.63
2022-10-22T13:08:09.842Z,98879.75
2022-10-22T13:10:55.162Z,98885.16
2022-10-22T13:13:40.059Z,98890.06
2022-10-22T13:16:27.256Z,98886.09
2022-10-22T13:19:37.310Z,98896.81
2022-10-22T13:22:26.983Z,98892.53
2022-10-22T13:25:19.560Z,98882.81
2022-10-22T13:28:07.674Z,98885.91
2022-10-22T13:31:18.157Z,98886.75
2022-10-22T13:34:10.892Z,98886.25
2022-10-22T13:36:58.637Z,98881.53
2022-10-22T13:39:43.877Z,98876.28
2022-10-22T13:42:28.647Z,98864.91
2022-10-22T13:45:14.181Z,98858.22
2022-10-22T13:47:59.215Z,98854.16
2022-10-22T13:50:44.852Z,98851.09
2022-10-22T13:53:30.497Z,98863.31
2022-10-22T13:56:16.821Z,98860.53
2022-10-22T13:59:01.575Z,98858.28
2022-10-22T14:01:46.605Z,98857.03
2022-10-22T14:04:34.894Z,98867.75
2022-10-22T14:07:20.218Z,98868.03
2022-10-22T14:10:23.598Z,98877.34
2022-10-22T14:13:12.580Z,98873.69
2022-10-22T14:15:57.142Z,98883.25
2022-10-22T14:18:42.218Z,98887.34
2022-10-22T14:21:34.806Z,98885.44
2022-10-22T14:24:19.852Z,98876.50
2022-10-22T14:27:04.832Z,98877.97
2022-10-22T14:29:56.052Z,98885.91
2022-10-22T14:32:45.524Z,98888.66
2022-10-22T14:35:30.430Z,98887.56
2022-10-22T14:38:17.220Z,98883.63
2022-10-22T14:41:02.082Z,98890.06
2022-10-22T14:43:48.185Z,98891.78
2022-10-22T14:46:33.288Z,98881.84
2022-10-22T14:49:18.027Z,98890.81
2022-10-22T14:52:03.311Z,98884.47
2022-10-22T14:54:48.345Z,98893.44
2022-10-22T14:57:32.924Z,98891.25
2022-10-22T15:00:18.915Z,98889.84
2022-10-22T15:03:04.435Z,98882.22
2022-10-22T15:05:53.080Z,98879.78
2022-10-22T15:08:38.845Z,98885.38
2022-10-22T15:11:23.499Z,98889.91
2022-10-22T15:14:08.707Z,98880.50
2022-10-22T15:16:53.400Z,98894.09
2022-10-22T15:19:38.382Z,98888.88
2022-10-22T15:22:23.306Z,98887.53
2022-10-22T15:25:08.767Z,98877.94
2022-10-22T15:27:56.561Z,98870.16
2022-10-22T15:30:58.098Z,98872.19
2022-10-22T15:33:43.710Z,98875.47
2022-10-22T15:36:28.636Z,98873.06
2022-10-22T15:39:13.767Z,98875.88
2022-10-22T15:41:59.526Z,98879.69
2022-10-22T15:44:44.380Z,98878.63
2022-10-22T15:47:30.611Z,98871.03
2022-10-22T15:50:16.143Z,98868.97
2022-10-22T15:53:00.828Z,98867.59
2022-10-22T15:55:49.042Z,98875.91
2022-10-22T15:58:34.117Z,98896.28
2022-10-22T16:01:19.128Z,98881.53
2022-10-22T16:04:05.212Z,98892.84
2022-10-22T16:06:52.653Z,98898.38
2022-10-22T16:09:37.681Z,98898.69
2022-10-22T16:12:22.566Z,98903.94
2022-10-22T16:15:08.381Z,98903.16
2022-10-22T16:17:53.074Z,98907.69
2022-10-22T16:20:39.799Z,98896.53
2022-10-22T16:23:24.669Z,98894.19
2022-10-22T16:26:09.792Z,98899.09
2022-10-22T16:28:54.717Z,98893.94
2022-10-22T16:31:42.194Z,98892.16
2022-10-22T16:34:27.644Z,98890.56
2022-10-22T16:37:13.013Z,98894.28
2022-10-22T16:39:58.028Z,98899.75
2022-10-22T16:42:43.929Z,98901.09
2022-10-22T16:45:28.932Z,98896.69
2022-10-22T16:48:14.768Z,98902.97
2022-10-22T16:51:06.143Z,98905.63
2022-10-22T16:53:52.648Z,98895.34
2022-10-22T16:56:37.818Z,98893.84
2022-10-22T16:59:23.226Z,98893.38
2022-10-22T17:02:10.608Z,98896.59
2022-10-22T17:04:55.923Z,98890.44
2022-10-22T17:07:41.077Z,98897.38
2022-10-22T17:10:26.539Z,98891.22
2022-10-22T17:13:11.615Z,98893.25
2022-10-22T17:16:09.968Z,98890.44
2022-10-22T17:18:56.076Z,98878.78
2022-10-22T17:21:42.085Z,98876.47
2022-10-22T17:24:27.093Z,98874.88
2022-10-22T17:27:12.884Z,98878.00
2022-10-22T17:29:57.986Z,98877.78
2022-10-22T17:32:43.719Z,98877.00
2022-10-22T17:35:29.215Z,98867.16
2022-10-22T17:38:14.213Z,98867.63
2022-10-22T17:41:04.120Z,98864.25
2022-10-22T17:43:51.310Z,98862.72
2022-10-22T17:46:37.245Z,98862.72
2022-10-22T17:49:22.546Z,98854.34
2022-10-22T17:52:10.729Z,98863.31
2022-10-22T17:54:55.540Z,98854.16
2022-10-22T17:57:40.499Z,98854.06
2022-10-22T18:00:25.271Z,98847.84
2022-10-22T18:03:11.428Z,98851.13
2022-10-22T18:05:55.965Z,98841.19
2022-10-22T18:08:41.125Z,98840.53
2022-10-22T18:11:27.410Z,98840.78
2022-10-22T18:14:12.049Z,98827.81
2022-10-22T18:16:56.940Z,98840.00
2022-10-22T18:19:41.897Z,98838.22
2022-10-22T18:22:26.833Z,98840.06
2022-10-22T18:25:11.800Z,98831.66
2022-10-22T18:27:56.685Z,98836.13
2022-10-22T18:30:42.524Z,98830.72
2022-10-22T18:33:27.268Z,98831.84
2022-10-22T18:36:15.621Z,98835.81
2022-10-22T18:39:01.953Z,98837.44
2022-10-22T18:41:47.018Z,98832.41
2022-10-22T18:44:33.963Z,98822.44
2022-10-22T18:47:18.594Z,98827.91
2022-10-22T18:50:04.396Z,98824.06
2022-10-22T18:52:49.745Z,98822.28
2022-10-22T18:55:37.244Z,98825.94
2022-10-22T18:58:22.217Z,98816.41
2022-10-22T19:01:12.530Z,98818.22
2022-10-22T19:03:57.629Z,98817.66
2022-10-22T19:06:45.236Z,98812.75
2022-10-22T19:09:30.890Z,98818.69
2022-10-22T19:12:15.549Z,98817.13
2022-10-22T19:15:01.049Z,98815.09
2022-10-22T19:17:45.953Z,98815.63
2022-10-22T19:20:31.093Z,98817.28
2022-10-22T19:23:19.950Z,98817.22
2022-10-22T19:26:09.498Z,98824.38
2022-10-22T19:28:55.655Z,98828.03
2022-10-22T19:31:41.534Z,98827.00
2022-10-22T19:34:26.562Z,98814.75
2022-10-22T19:37:12.045Z,98817.69
2022-10-22T19:39:56.769Z,98820.31
2022-10-22T19:42:43.706Z,98816.56
2022-10-22T19:45:28.723Z,98824.50
2022-10-22T19:48:13.723Z,98819.59
2022-10-22T19:51:05.277Z,98823.88
2022-10-22T19:53:56.068Z,98832.38
2022-10-22T19:56:40.942Z,98827.34
2022-10-22T19:59:28.650Z,98826.03
2022-10-22T20:02:17.680Z,98826.16
2022-10-22T20:05:03.072Z,98840.38
2022-10-22T20:07:48.217Z,98834.09
2022-10-22T20:10:33.119Z,98834.78
2022-10-22T20:13:18.124Z,98835.03
2022-10-22T20:16:03.642Z,98840.38
2022-10-22T20:18:49.143Z,98838.06
2022-10-22T20:21:34.406Z,98840.63
2022-10-22T20:24:19.192Z,98831.03
2022-10-22T20:27:04.032Z,98845.00
2022-10-22T20:29:48.882Z,98831.03
2022-10-22T20:32:37.076Z,98835.25
2022-10-22T20:35:21.943Z,98836.72
2022-10-22T20:38:08.162Z,98838.06
2022-10-22T20:41:06.999Z,98839.94
2022-10-22T20:43:52.290Z,98845.63
2022-10-22T20:46:37.088Z,98836.38
2022-10-22T20:49:21.931Z,98838.94
2022-10-22T20:52:07.729Z,98840.03
2022-10-22T20:54:52.335Z,98842.59
2022-10-22T20:57:37.250Z,98838.25
2022-10-22T21:00:22.417Z,98840.81
2022-10-22T21:03:07.295Z,98834.09
2022-10-22T21:05:52.457Z,98830.53
2022-10-22T21:08:37.709Z,98835.69
2022-10-22T21:11:22.878Z,98830.06
2022-10-22T21:14:10.347Z,98829.06
2022-10-22T21:16:55.698Z,98824.47
2022-10-22T21:19:40.674Z,98820.88
2022-10-22T21:22:25.435Z,98823.22
2022-10-22T21:25:10.638Z,98811.81
2022-10-22T21:27:55.505Z,98817.63
2022-10-22T21:30:47.017Z,98816.06
2022-10-22T21:33:36.015Z,98807.81
2022-10-22T21:36:23.215Z,98812.78
2022-10-22T21:39:08.247Z,98801.16
2022-10-22T21:41:53.326Z,98806.09
2022-10-22T21:44:38.305Z,98795.03
2022-10-22T21:47:24.071Z,98799.13
2022-10-22T21:50:09.197Z,98794.25
2022-10-22T21:52:54.819Z,98794.00
2022-10-22T21:55:41.103Z,98785.53
2022-10-22T21:58:26.163Z,98789.63
2022-10-22T22:01:12.114Z,98785.53
2022-10-22T22:03:57.036Z,98782.63
2022-10-22T22:06:41.807Z,98775.81
2022-10-22T22:09:26.882Z,98771.91
2022-10-22T22:12:11.694Z,98784.78
2022-10-22T22:14:56.809Z,98774.41
2022-10-22T22:17:41.618Z,98772.06
2022-10-22T22:20:27.011Z,98773.41
2022-10-22T22:23:12.134Z,98771.53
2022-10-22T22:26:01.542Z,98768.94
2022-10-22T22:28:47.039Z,98778.00
2022-10-22T22:31:33.780Z,98771.53
2022-10-22T22:34:18.533Z,98773.06
2022-10-22T22:37:03.758Z,98766.13
2022-10-22T22:39:48.729Z,98761.53
2022-10-22T22:42:33.667Z,98755.06
2022-10-22T22:45:18.695Z,98756.09
2022-10-22T22:48:03.698Z,98749.38
2022-10-22T22:50:48.621Z,98740.09
2022-10-22T22:53:34.996Z,98746.88
2022-10-22T22:56:22.897Z,98740.75
2022-10-22T22:59:07.371Z,98743.31
2022-10-22T23:01:52.355Z,98750.25
2022-10-22T23:04:37.394Z,98738.72
2022-10-22T23:07:22.417Z,98743.84
2022-10-22T23:10:07.802Z,98731.22
2022-10-22T23:12:52.283Z,98730.44
2022-10-22T23:15:39.660Z,98731.00
2022-10-22T23:18:24.864Z,98728.97
2022-10-22T23:21:16.369Z,98721.25
2022-10-22T23:24:04.246Z,98717.66
2022-10-22T23:26:51.654Z,98727.50
2022-10-22T23:29:36.352Z,98719.53
2022-10-22T23:32:21.385Z,98718.75
2022-10-22T23:35:06.800Z,98728.84
2022-10-22T23:37:51.545Z,98719.53
2022-10-22T23:40:36.949Z,98716.97
2022-10-22T23:43:25.910Z,98718.53
2022-10-22T23:46:12.094Z,98718.53
2022-10-22T23:48:56.965Z,98727.81
2022-10-22T23:51:42.217Z,98719.06
2022-10-22T23:54:27.060Z,98704.88
2022-10-22T23:57:11.923Z,98718.03
2022-10-22T23:59:56.837Z,98717.84
